עמוד ראשי
METAR-TAF:

METAR-TAF

שדות תעופה :

נמל התעופה הבינלאומי טאבה

טאבה, מצרים

קו רוחב: 29-35-57N, קו אורך: 034-46-36E, גובה: 749מטר

METAR: חסר

זמן: 11:36 (09:36 UTC)

תחזית

הדו"ח נערך לפני 4 שעות ו 36דקות, בשעה 05:00 UTC
תחזית בתוקף מ 19 ב 06 UTC עד 20 ב 12 UTC
רוח 10קשר מכיוון צפון
ראות 10 קילומטר או יותר
ללא עננים שבסיסם נמוך מ 5000 רגל או קומולונימבוס

TAF: HETB 190500Z 1906/2012 35010KT CAVOK

תצפיות ותחזיות מזג אוויר לגבי יותר מ- 4,000 שדות תעופה ברחבי העולם. דוחות METAR ו- TAF.

התחנות הזמינות מסומנות בנקודות צהובות ואדומות על גבי המפה.

העבר את העכבר לנקודה הצבעונית על מנת לראות את שם התחנה.

לאחר מכן, לחץ כדי לראות את תוכן ואת תחזיות מזג האוויר.

כדי לשנות את המפה: לחץ על הכפתורים הירוקים עם הפלוס השחור כדי להתקרב; על הכפתור הירוק עם המקף כדי להתרחק; או בחיצים הירוקים למפות סמוכות.


METAR-TAF: